createdAt,value
2019-03-22T00:00:48.152Z,11.93
2019-03-22T00:03:53.822Z,12.23
2019-03-22T00:06:59.372Z,11.47
2019-03-22T00:10:05.202Z,11.00
2019-03-22T00:13:10.922Z,12.00
2019-03-22T00:16:16.572Z,11.73
2019-03-22T00:19:22.196Z,13.27
2019-03-22T00:22:27.864Z,12.73
2019-03-22T00:25:33.495Z,12.30
2019-03-22T00:28:39.105Z,12.33
2019-03-22T00:31:44.628Z,13.20
2019-03-22T00:34:50.301Z,11.40
2019-03-22T00:37:55.969Z,11.60
2019-03-22T00:41:01.486Z,12.00
2019-03-22T00:44:07.092Z,11.97
2019-03-22T00:47:12.711Z,10.33
2019-03-22T00:50:18.353Z,15.60
2019-03-22T00:53:23.961Z,13.60
2019-03-22T00:56:29.544Z,10.50
2019-03-22T00:59:35.149Z,9.70
2019-03-22T01:02:40.812Z,9.40
2019-03-22T01:05:46.480Z,9.20
2019-03-22T01:08:52.471Z,9.00
2019-03-22T01:11:58.055Z,9.80
2019-03-22T01:15:04.085Z,12.07
2019-03-22T01:18:09.689Z,10.23
2019-03-22T01:21:15.433Z,10.00
2019-03-22T01:24:21.042Z,9.93
2019-03-22T01:27:26.640Z,10.83
2019-03-22T01:30:34.042Z,11.50
2019-03-22T01:33:39.617Z,10.97
2019-03-22T01:36:45.356Z,11.73
2019-03-22T01:39:51.038Z,11.67
2019-03-22T01:42:59.248Z,12.17
2019-03-22T01:46:04.976Z,10.40
2019-03-22T01:49:10.638Z,11.37
2019-03-22T01:52:16.224Z,10.97
2019-03-22T01:55:21.743Z,10.60
2019-03-22T01:58:27.250Z,12.70
2019-03-22T02:01:32.795Z,9.73
2019-03-22T02:04:38.458Z,11.60
2019-03-22T02:07:44.131Z,10.90
2019-03-22T02:10:49.643Z,10.93
2019-03-22T02:13:55.216Z,9.90
2019-03-22T02:17:00.794Z,10.60
2019-03-22T02:20:07.568Z,10.87
2019-03-22T02:23:13.136Z,11.20
2019-03-22T02:26:18.777Z,10.20
2019-03-22T02:29:25.868Z,11.07
2019-03-22T02:32:31.392Z,10.90
2019-03-22T02:35:37.105Z,9.53
2019-03-22T02:38:42.745Z,10.87
2019-03-22T02:41:48.244Z,9.67
2019-03-22T02:44:53.933Z,10.73
2019-03-22T02:47:59.494Z,10.77
2019-03-22T02:51:05.148Z,10.13
2019-03-22T02:54:10.769Z,9.73
2019-03-22T02:57:16.401Z,9.47
2019-03-22T03:00:22.064Z,10.03
2019-03-22T03:03:27.787Z,9.80
2019-03-22T03:06:33.691Z,10.03
2019-03-22T03:09:39.208Z,9.90
2019-03-22T03:12:44.872Z,9.90
2019-03-22T03:15:50.462Z,11.13
2019-03-22T03:18:55.989Z,10.50
2019-03-22T03:22:01.532Z,10.20
2019-03-22T03:25:09.334Z,11.00
2019-03-22T03:28:14.957Z,10.13
2019-03-22T03:31:20.620Z,10.10
2019-03-22T03:34:26.381Z,9.80
2019-03-22T03:37:32.027Z,10.43
2019-03-22T03:40:37.772Z,10.30
2019-03-22T03:43:43.349Z,11.13
2019-03-22T03:46:48.931Z,10.10
2019-03-22T03:49:54.518Z,10.70
2019-03-22T03:53:00.346Z,10.00
2019-03-22T03:56:07.592Z,11.40
2019-03-22T03:59:13.108Z,11.17
2019-03-22T04:02:19.863Z,10.87
2019-03-22T04:05:27.770Z,11.17
2019-03-22T04:08:34.542Z,10.60
2019-03-22T04:11:40.323Z,10.40
2019-03-22T04:14:45.893Z,11.03
2019-03-22T04:17:51.421Z,11.33
2019-03-22T04:20:57.078Z,10.47
2019-03-22T04:24:02.824Z,11.27
2019-03-22T04:27:08.405Z,10.80
2019-03-22T04:30:14.490Z,11.87
2019-03-22T04:33:20.096Z,11.03
2019-03-22T04:36:25.696Z,11.77
2019-03-22T04:39:31.204Z,10.63
2019-03-22T04:42:36.738Z,10.07
2019-03-22T04:45:43.175Z,10.90
2019-03-22T04:48:49.901Z,10.50
2019-03-22T04:51:56.176Z,11.30
2019-03-22T04:55:02.927Z,10.93
2019-03-22T04:58:09.360Z,11.13
2019-03-22T05:01:16.546Z,11.53
2019-03-22T05:04:24.987Z,10.27
2019-03-22T05:07:30.757Z,10.47
2019-03-22T05:10:38.002Z,11.17
2019-03-22T05:13:45.203Z,13.10
2019-03-22T05:16:53.171Z,13.53
2019-03-22T05:19:59.213Z,12.50
2019-03-22T05:23:05.449Z,11.67
2019-03-22T05:26:12.503Z,9.77
2019-03-22T05:29:29.941Z,10.70
2019-03-22T05:32:26.673Z,9.87
2019-03-22T05:35:32.334Z,9.80
2019-03-22T05:38:37.922Z,10.43
2019-03-22T05:41:43.533Z,10.57
2019-03-22T05:44:49.144Z,11.13
2019-03-22T05:47:54.674Z,10.97
2019-03-22T05:51:00.176Z,9.70
2019-03-22T05:54:05.912Z,10.67
2019-03-22T05:57:13.712Z,10.37
2019-03-22T06:00:18.763Z,10.53
2019-03-22T06:03:24.368Z,13.17
2019-03-22T06:06:30.016Z,12.10
2019-03-22T06:09:35.534Z,11.57
2019-03-22T06:12:41.315Z,11.80
2019-03-22T06:15:46.896Z,12.00
2019-03-22T06:18:52.573Z,14.77
2019-03-22T06:21:58.258Z,13.87
2019-03-22T06:25:04.239Z,11.67
2019-03-22T06:28:09.812Z,12.10
2019-03-22T06:31:15.475Z,14.07
2019-03-22T06:34:21.188Z,13.40
2019-03-22T06:37:26.856Z,13.33
2019-03-22T06:40:32.444Z,12.87
2019-03-22T06:43:38.115Z,12.53
2019-03-22T06:46:43.683Z,12.43
2019-03-22T06:49:49.263Z,12.13
2019-03-22T06:52:56.619Z,12.90
2019-03-22T06:56:02.233Z,12.90
2019-03-22T06:59:07.866Z,11.43
2019-03-22T07:02:13.507Z,13.50
2019-03-22T07:05:19.113Z,11.50
2019-03-22T07:08:24.643Z,12.97
2019-03-22T07:11:31.237Z,14.53
2019-03-22T07:14:36.880Z,14.20
2019-03-22T07:17:42.471Z,12.77
2019-03-22T07:20:49.032Z,12.60
2019-03-22T07:23:56.013Z,13.97
2019-03-22T07:27:01.587Z,13.93
2019-03-22T07:30:18.173Z,14.50
2019-03-22T07:33:15.376Z,14.77
2019-03-22T07:36:20.956Z,12.60
2019-03-22T07:39:26.618Z,12.97
2019-03-22T07:42:32.593Z,13.00
2019-03-22T07:45:39.623Z,12.10
2019-03-22T07:48:45.111Z,12.87
2019-03-22T07:51:50.623Z,13.07
2019-03-22T07:54:56.288Z,13.87
2019-03-22T07:58:02.276Z,14.23
2019-03-22T08:01:07.948Z,13.13
2019-03-22T08:04:13.662Z,14.20
2019-03-22T08:07:19.316Z,13.13
2019-03-22T08:10:26.058Z,14.53
2019-03-22T08:13:33.209Z,13.53
2019-03-22T08:16:38.816Z,15.83
2019-03-22T08:19:44.533Z,14.30
2019-03-22T08:22:50.192Z,13.50
2019-03-22T08:25:55.934Z,12.43
2019-03-22T08:29:01.655Z,12.63
2019-03-22T08:32:07.422Z,12.70
2019-03-22T08:35:13.104Z,13.37
2019-03-22T08:38:18.623Z,13.00
2019-03-22T08:41:24.276Z,12.67
2019-03-22T08:44:29.866Z,12.20
2019-03-22T08:47:35.475Z,13.10
2019-03-22T08:50:41.243Z,11.40
2019-03-22T08:53:55.245Z,12.70
2019-03-22T08:56:54.147Z,12.93
2019-03-22T08:59:59.770Z,12.20
2019-03-22T09:03:05.482Z,12.73
2019-03-22T09:06:11.147Z,11.13
2019-03-22T09:09:16.811Z,11.60
2019-03-22T09:12:22.470Z,12.70
2019-03-22T09:15:40.273Z,11.27
2019-03-22T09:18:35.363Z,10.67
2019-03-22T09:21:40.916Z,10.77
2019-03-22T09:24:46.544Z,10.43
2019-03-22T09:27:52.207Z,11.23
2019-03-22T09:31:09.812Z,10.70
2019-03-22T09:34:05.227Z,11.93
2019-03-22T09:37:10.872Z,11.00
2019-03-22T09:40:16.592Z,10.73
2019-03-22T09:43:22.172Z,12.23
2019-03-22T09:46:27.844Z,11.20
2019-03-22T09:49:33.572Z,11.67
2019-03-22T09:52:39.243Z,12.43
2019-03-22T09:55:44.821Z,12.67
2019-03-22T09:58:50.498Z,12.70
2019-03-22T10:01:56.226Z,13.47
2019-03-22T10:05:01.829Z,12.30
2019-03-22T10:08:07.420Z,12.03
2019-03-22T10:11:13.074Z,12.87
2019-03-22T10:14:21.305Z,11.60
2019-03-22T10:17:25.933Z,13.57
2019-03-22T10:20:31.654Z,12.27
2019-03-22T10:23:37.415Z,11.50
2019-03-22T10:26:43.120Z,12.00
2019-03-22T10:29:48.803Z,12.17
2019-03-22T10:32:54.448Z,11.50
2019-03-22T10:36:00.043Z,12.50
2019-03-22T10:39:08.596Z,12.40
2019-03-22T10:42:14.247Z,12.77
2019-03-22T10:45:19.890Z,14.10
2019-03-22T10:48:25.551Z,13.23
2019-03-22T10:51:31.140Z,12.20
2019-03-22T10:54:36.788Z,11.63
2019-03-22T10:57:46.181Z,11.20
2019-03-22T11:00:51.827Z,11.10
2019-03-22T11:03:57.609Z,10.97
2019-03-22T11:07:03.455Z,12.30
2019-03-22T11:10:12.699Z,11.33
2019-03-22T11:13:17.851Z,10.93
2019-03-22T11:16:23.439Z,10.57
2019-03-22T11:19:29.028Z,10.73
2019-03-22T11:22:34.700Z,9.57
2019-03-22T11:25:40.287Z,9.67
2019-03-22T11:28:45.788Z,9.10
2019-03-22T11:31:51.379Z,9.53
2019-03-22T11:34:57.029Z,10.90
2019-03-22T11:38:02.634Z,9.10
2019-03-22T11:41:08.301Z,9.07
2019-03-22T11:44:13.951Z,8.00
2019-03-22T11:47:19.560Z,8.73
2019-03-22T11:50:25.216Z,8.30
2019-03-22T11:53:30.867Z,8.50
2019-03-22T11:56:36.436Z,7.77
2019-03-22T11:59:42.082Z,7.70
2019-03-22T12:02:47.688Z,7.60
2019-03-22T12:05:53.347Z,7.37
2019-03-22T12:08:59.008Z,6.70
2019-03-22T12:12:04.695Z,7.53
2019-03-22T12:15:10.608Z,5.97
2019-03-22T12:18:16.348Z,7.10
2019-03-22T12:21:21.943Z,6.10
2019-03-22T12:24:27.450Z,6.17
2019-03-22T12:27:36.913Z,5.27
2019-03-22T12:30:42.931Z,6.70
2019-03-22T12:33:50.575Z,6.00
2019-03-22T12:36:56.264Z,5.20
2019-03-22T12:40:01.952Z,6.23
2019-03-22T12:43:07.683Z,6.33
2019-03-22T12:46:13.451Z,5.90
2019-03-22T12:49:18.951Z,4.20
2019-03-22T12:52:24.579Z,4.90
2019-03-22T12:55:30.103Z,4.63
2019-03-22T12:58:36.068Z,4.17
2019-03-22T13:01:41.730Z,5.00
2019-03-22T13:04:47.381Z,4.47
2019-03-22T13:07:53.210Z,3.70
2019-03-22T13:10:58.814Z,3.33
2019-03-22T13:14:04.483Z,3.43
2019-03-22T13:17:10.168Z,3.43
2019-03-22T13:20:15.846Z,3.97
2019-03-22T13:23:21.369Z,3.23
2019-03-22T13:26:27.108Z,3.63
2019-03-22T13:29:32.611Z,2.93
2019-03-22T13:32:38.271Z,3.00
2019-03-22T13:35:43.786Z,3.20
2019-03-22T13:38:49.460Z,3.03
2019-03-22T13:41:55.147Z,2.90
2019-03-22T13:45:00.741Z,2.80
2019-03-22T13:48:06.331Z,3.50
2019-03-22T13:51:12.269Z,2.57
2019-03-22T13:54:17.839Z,2.27
2019-03-22T13:57:23.711Z,5.53
2019-03-22T14:00:31.408Z,2.83
2019-03-22T14:03:37.134Z,3.00
2019-03-22T14:06:42.956Z,2.37
2019-03-22T14:09:48.588Z,2.47
2019-03-22T14:12:54.107Z,3.60
2019-03-22T14:15:59.699Z,3.57
2019-03-22T14:19:05.306Z,3.33
2019-03-22T14:22:10.888Z,3.23
2019-03-22T14:25:16.547Z,3.27
2019-03-22T14:28:22.055Z,3.20
2019-03-22T14:31:27.636Z,2.97
2019-03-22T14:34:33.223Z,2.17
2019-03-22T14:37:38.900Z,2.73
2019-03-22T14:40:44.476Z,2.43
2019-03-22T14:43:50.043Z,2.17
2019-03-22T14:46:55.544Z,2.30
2019-03-22T14:50:01.128Z,2.53
2019-03-22T14:53:06.781Z,2.30
2019-03-22T14:56:13.685Z,2.77
2019-03-22T14:59:19.328Z,2.23
2019-03-22T15:02:24.920Z,2.10
2019-03-22T15:05:30.559Z,1.80
2019-03-22T15:08:36.440Z,1.80
2019-03-22T15:11:42.003Z,2.83
2019-03-22T15:14:57.469Z,2.20
2019-03-22T15:18:40.307Z,2.00
2019-03-22T15:22:23.036Z,2.43
2019-03-22T15:26:00.231Z,2.93
2019-03-22T15:29:27.716Z,2.50
2019-03-22T15:32:51.254Z,2.43
2019-03-22T15:36:22.033Z,2.20
2019-03-22T15:39:44.395Z,2.50
2019-03-22T15:42:50.886Z,2.00
2019-03-22T15:45:56.931Z,2.90
2019-03-22T15:49:03.278Z,3.10
2019-03-22T15:52:09.276Z,2.00
2019-03-22T15:55:15.733Z,2.80
2019-03-22T15:58:21.850Z,4.57
2019-03-22T16:01:27.675Z,2.73
2019-03-22T16:04:33.336Z,2.60
2019-03-22T16:07:38.971Z,2.33
2019-03-22T16:10:44.640Z,2.20
2019-03-22T16:13:50.492Z,2.43
2019-03-22T16:16:56.212Z,2.60
2019-03-22T16:20:01.799Z,2.60
2019-03-22T16:23:07.612Z,2.90
2019-03-22T16:26:13.374Z,2.77
2019-03-22T16:29:18.905Z,2.37
2019-03-22T16:32:24.479Z,2.97
2019-03-22T16:35:30.220Z,2.27
2019-03-22T16:38:35.884Z,3.00
2019-03-22T16:41:41.538Z,3.50
2019-03-22T16:44:47.193Z,4.73
2019-03-22T16:47:52.834Z,3.70
2019-03-22T16:50:58.487Z,2.80
2019-03-22T16:54:04.287Z,3.77
2019-03-22T16:57:10.111Z,3.60
2019-03-22T17:00:16.140Z,3.50
2019-03-22T17:03:21.850Z,4.13
2019-03-22T17:06:27.453Z,43.70
2019-03-22T17:09:33.113Z,10.00
2019-03-22T17:12:38.848Z,7.73
2019-03-22T17:15:44.410Z,5.87
2019-03-22T17:18:49.911Z,5.93
2019-03-22T17:21:55.496Z,5.00
2019-03-22T17:25:01.078Z,6.03
2019-03-22T17:28:09.091Z,7.97
2019-03-22T17:31:15.910Z,8.10
2019-03-22T17:34:23.997Z,8.63
2019-03-22T17:37:30.163Z,8.27
2019-03-22T17:40:36.180Z,7.63
2019-03-22T17:43:42.305Z,8.43
2019-03-22T17:46:47.947Z,9.47
2019-03-22T17:49:53.722Z,11.63
2019-03-22T17:52:59.223Z,15.43
2019-03-22T17:56:05.041Z,14.50
2019-03-22T17:59:11.014Z,12.43
2019-03-22T18:02:16.825Z,10.90
2019-03-22T18:05:22.409Z,10.63
2019-03-22T18:08:28.109Z,9.30
2019-03-22T18:11:33.720Z,8.03
2019-03-22T18:14:41.206Z,10.30
2019-03-22T18:17:46.776Z,9.80
2019-03-22T18:20:52.280Z,8.30
2019-03-22T18:23:57.891Z,9.63
2019-03-22T18:27:03.488Z,11.07
2019-03-22T18:30:09.347Z,12.00
2019-03-22T18:33:14.923Z,12.13
2019-03-22T18:36:20.535Z,12.40
2019-03-22T18:39:26.146Z,12.13
2019-03-22T18:42:31.651Z,11.80
2019-03-22T18:45:37.337Z,9.77
2019-03-22T18:48:42.987Z,9.23
2019-03-22T18:51:48.586Z,9.00
2019-03-22T18:54:54.194Z,8.60
2019-03-22T18:57:59.789Z,9.20
2019-03-22T19:01:05.483Z,7.83
2019-03-22T19:04:11.052Z,8.47
2019-03-22T19:07:17.263Z,11.03
2019-03-22T19:10:22.912Z,12.43
2019-03-22T19:13:30.970Z,11.60
2019-03-22T19:16:37.197Z,12.03
2019-03-22T19:19:43.119Z,10.67
2019-03-22T19:22:48.980Z,10.43
2019-03-22T19:25:54.814Z,11.47
2019-03-22T19:29:00.485Z,11.90
2019-03-22T19:32:13.395Z,16.80
2019-03-22T19:35:14.156Z,18.30
2019-03-22T19:38:19.867Z,22.43
2019-03-22T19:41:25.472Z,20.23
2019-03-22T19:44:31.079Z,20.07
2019-03-22T19:47:38.115Z,18.67
2019-03-22T19:50:43.859Z,21.30
2019-03-22T19:53:49.780Z,17.23
2019-03-22T19:56:55.835Z,18.80
2019-03-22T20:00:01.636Z,17.37
2019-03-22T20:03:07.844Z,16.33
2019-03-22T20:06:13.484Z,13.53
2019-03-22T20:09:19.136Z,14.67
2019-03-22T20:12:25.483Z,11.87
2019-03-22T20:15:31.459Z,13.67
2019-03-22T20:18:37.200Z,17.63
2019-03-22T20:21:43.486Z,20.50
2019-03-22T20:24:49.524Z,38.80
2019-03-22T20:27:55.503Z,23.37
2019-03-22T20:31:01.575Z,22.80
2019-03-22T20:34:07.445Z,28.90
2019-03-22T20:37:13.295Z,29.03
2019-03-22T20:40:19.242Z,28.10
2019-03-22T20:43:24.890Z,19.53
2019-03-22T20:46:30.490Z,20.37
2019-03-22T20:49:36.556Z,25.67
2019-03-22T20:52:42.257Z,26.30
2019-03-22T20:55:48.053Z,25.50
2019-03-22T20:58:53.708Z,23.73
2019-03-22T21:01:59.526Z,23.87
2019-03-22T21:05:05.612Z,22.67
2019-03-22T21:08:11.388Z,22.03
2019-03-22T21:11:17.140Z,20.00
2019-03-22T21:14:22.662Z,18.70
2019-03-22T21:17:28.250Z,19.30
2019-03-22T21:20:33.866Z,18.07
2019-03-22T21:23:39.408Z,18.60
2019-03-22T21:26:45.005Z,16.40
2019-03-22T21:29:50.708Z,14.83
2019-03-22T21:32:56.235Z,14.87
2019-03-22T21:36:01.753Z,16.53
2019-03-22T21:39:08.103Z,15.07
2019-03-22T21:42:13.825Z,15.03
2019-03-22T21:45:19.872Z,15.00
2019-03-22T21:48:26.659Z,14.73
2019-03-22T21:51:36.289Z,14.70
2019-03-22T21:54:42.223Z,14.10
2019-03-22T21:57:48.376Z,14.43
2019-03-22T22:00:54.301Z,13.47
2019-03-22T22:04:00.051Z,14.83
2019-03-22T22:07:05.745Z,16.17
2019-03-22T22:10:11.567Z,15.40
2019-03-22T22:13:17.332Z,13.33
2019-03-22T22:16:22.946Z,14.50
2019-03-22T22:19:28.559Z,14.10
2019-03-22T22:22:34.074Z,14.50
2019-03-22T22:25:39.659Z,14.60
2019-03-22T22:28:45.405Z,14.50
2019-03-22T22:31:53.159Z,14.83
2019-03-22T22:34:58.772Z,12.93
2019-03-22T22:38:04.443Z,14.30
2019-03-22T22:41:10.123Z,14.60
2019-03-22T22:44:15.719Z,15.53
2019-03-22T22:47:21.299Z,14.00
2019-03-22T22:50:26.844Z,14.20
2019-03-22T22:53:32.455Z,14.97
2019-03-22T22:56:38.055Z,14.80
2019-03-22T22:59:43.719Z,14.60
2019-03-22T23:02:49.380Z,15.20
2019-03-22T23:05:55.181Z,16.07
2019-03-22T23:09:00.888Z,15.10
2019-03-22T23:12:06.710Z,14.43
2019-03-22T23:15:12.607Z,13.80
2019-03-22T23:18:18.298Z,16.83
2019-03-22T23:21:24.011Z,13.77
2019-03-22T23:24:29.699Z,13.90
2019-03-22T23:27:35.370Z,14.77
2019-03-22T23:30:41.068Z,15.70
2019-03-22T23:33:46.710Z,14.10
2019-03-22T23:36:52.399Z,15.47
2019-03-22T23:39:57.927Z,14.10
2019-03-22T23:43:03.603Z,13.57
2019-03-22T23:46:09.284Z,13.80
2019-03-22T23:49:14.797Z,14.70
2019-03-22T23:52:20.494Z,12.97
2019-03-22T23:55:26.173Z,14.40
2019-03-22T23:58:31.864Z,14.90
